Date,TemperatureHighF,TemperatureAvgF,TemperatureLowF,DewpointHighF,DewpointAvgF,DewpointLowF,HumidityHigh,HumidityAvg,HumidityLow,PressureMaxIn,PressureMinIn,WindSpeedMaxMPH,WindSpeedAvgMPH,GustSpeedMaxMPH,PrecipitationSumIn
2013-1-1,15,5,-7,12,0,-11,86,80,66,30.31,30.12,13,3,13,0.00
2013-1-2,20,16,13,15,12,9,92,82,70,30.12,30.00,14,3,14,0.00
2013-1-3,21,16,8,18,12,4,92,86,81,30.21,30.07,14,5,14,0.00
2013-1-4,30,20,10,20,14,6,89,81,65,30.18,30.01,16,4,16,0.00
2013-1-5,27,18,9,20,14,5,90,84,72,30.17,29.86,9,1,9,0.00
2013-1-6,25,21,13,21,16,9,88,81,68,30.22,29.95,14,3,14,0.00
2013-1-7,35,27,14,28,21,9,88,80,72,30.14,29.90,21,6,23,0.00
2013-1-8,39,29,18,32,25,15,90,83,69,30.02,29.77,22,3,22,0.00
2013-1-9,35,29,23,28,24,18,86,80,63,30.36,29.85,16,4,18,0.00
2013-1-10,42,32,24,33,24,20,92,75,42,30.40,29.77,11,2,13,0.00
2013-1-11,43,38,36,40,35,32,89,88,88,29.80,29.38,14,2,14,0.00
2013-1-12,43,24,11,41,18,5,92,80,73,30.04,29.38,30,10,30,0.41
2013-1-13,13,10,5,8,5,1,94,80,74,30.26,30.00,16,5,16,0.00
2013-1-14,13,7,3,8,3,0,87,83,76,30.43,30.26,12,3,14,0.00
2013-1-15,28,19,5,20,13,2,86,76,66,30.39,29.89,20,6,20,0.00
2013-1-16,34,26,13,28,19,3,89,75,58,30.18,29.66,24,7,24,0.00
2013-1-17,17,11,6,10,3,-3,86,69,54,30.41,30.18,14,4,14,0.00
2013-1-18,40,25,8,33,20,4,88,82,70,30.37,29.74,16,3,16,0.00
2013-1-19,39,26,6,33,20,-3,92,79,61,30.09,29.60,36,8,37,0.08
2013-1-20,8,4,0,-1,-4,-5,80,71,57,30.36,30.08,21,7,26,0.00
2013-1-21,2,-6,-9,-3,-14,-19,79,68,59,30.35,30.24,22,8,23,0.00
2013-1-22,-1,-6,-13,-7,-13,-18,79,72,62,30.47,30.33,13,3,13,0.00
2013-1-23,14,4,-6,8,-2,-13,92,73,57,30.61,30.15,25,4,25,0.00
2013-1-24,11,1,-9,3,-6,-14,89,73,62,30.74,30.30,8,1,8,0.00
2013-1-25,20,14,9,15,9,3,87,81,68,30.30,29.95,19,4,19,0.00
2013-1-26,23,12,-3,14,5,-7,92,73,59,30.42,30.23,12,1,12,0.00
2013-1-27,31,27,22,29,21,13,90,79,63,30.25,29.83,9,2,9,0.05
2013-1-28,34,32,31,31,29,28,90,89,87,29.91,29.68,8,1,8,0.00
2013-1-29,35,34,30,33,31,26,91,87,83,29.70,29.48,17,3,17,0.76
2013-1-30,30,20,11,26,16,4,94,82,74,29.67,29.52,23,7,23,0.10
2013-1-31,11,6,-2,5,0,-9,83,74,67,30.21,29.67,21,9,21,0.00
2013-2-1,2,-4,-12,0,-11,-17,92,72,62,30.34,30.16,15,4,15,0.00
2013-2-2,10,5,0,4,-1,-5,92,75,61,30.23,30.01,9,1,9,0.01
2013-2-3,15,11,6,7,4,2,86,75,59,30.06,29.98,18,4,18,0.01
2013-2-4,15,10,1,7,1,-5,83,66,49,30.08,29.88,12,2,12,0.00
2013-2-5,26,18,8,21,13,3,90,82,66,30.10,29.68,17,3,17,0.03
2013-2-6,25,14,-2,22,11,-6,89,86,81,30.18,30.04,8,1,8,0.05
2013-2-7,26,26,24,24,22,20,91,88,84,30.25,30.05,10,2,10,0.00
2013-2-8,29,20,9,20,11,4,89,70,43,30.41,30.25,6,1,7,0.00
2013-2-9,28,23,14,25,19,7,89,85,73,30.33,30.00,16,3,17,0.00
2013-2-10,36,31,26,34,28,23,90,89,87,30.01,29.23,14,2,14,0.24
2013-2-11,35,29,22,32,25,18,91,85,79,29.98,29.23,24,9,24,0.00
2013-2-12,34,24,15,25,19,12,92,81,69,30.02,29.78,16,5,16,0.35
2013-2-13,34,28,21,29,24,19,90,85,76,29.79,29.57,11,2,11,0.00
2013-2-14,33,27,14,30,20,4,91,75,63,30.10,29.57,19,4,19,0.18
2013-2-15,17,12,9,6,4,2,77,68,56,30.26,30.10,17,4,17,0.00
2013-2-16,16,9,0,6,2,-4,86,73,57,30.24,30.18,11,2,11,0.00
2013-2-17,30,14,-6,16,6,-10,86,71,53,30.20,29.80,13,2,13,0.00
2013-2-18,35,27,17,31,22,14,90,82,75,29.80,29.50,25,5,25,0.00
2013-2-19,17,8,3,13,0,-5,84,69,56,30.31,29.63,25,9,25,0.00
2013-2-20,25,11,0,11,4,-5,89,72,54,30.46,30.31,13,2,13,0.00
2013-2-21,24,13,-3,15,6,-7,87,74,60,30.53,30.15,5,0,5,0.00
2013-2-22,30,25,21,26,22,16,91,88,81,30.15,29.82,10,1,10,0.14
2013-2-23,31,26,22,25,22,20,92,87,78,29.93,29.81,11,3,11,0.15
2013-2-24,37,28,24,26,23,21,88,79,61,30.10,29.93,9,2,9,0.00
2013-2-25,33,29,21,29,25,18,92,85,81,30.12,30.04,7,1,7,0.00
2013-2-26,38,33,28,29,27,24,92,78,67,30.07,29.82,10,2,11,0.00
2013-2-27,36,33,31,28,27,25,85,78,71,29.94,29.79,19,4,19,0.00
2013-2-28,32,29,23,27,22,17,85,76,67,30.22,29.94,15,3,15,0.00
2013-3-1,33,25,16,18,15,12,83,68,46,30.33,30.21,11,2,11,0.00
2013-3-2,30,19,6,15,10,2,89,70,47,30.35,30.19,14,2,14,0.00
2013-3-3,32,20,6,12,3,-6,81,52,21,30.19,30.07,9,0,9,0.00
2013-3-4,30,24,17,19,11,-1,78,58,41,30.10,30.02,12,2,13,0.00
2013-3-5,28,26,23,24,22,18,89,85,72,30.23,30.02,11,2,11,0.24
2013-3-6,29,23,13,21,17,10,87,77,61,30.37,30.21,14,4,14,0.00
2013-3-7,35,21,3,20,13,-1,97,71,48,30.44,30.36,10,1,10,0.00
2013-3-8,42,30,19,30,23,14,87,74,61,30.41,30.17,15,2,17,0.00
2013-3-9,37,34,31,34,31,25,90,87,75,30.17,29.72,10,2,10,0.20
2013-3-10,37,35,31,34,32,28,91,87,81,29.90,29.73,11,2,12,0.17
2013-3-11,34,29,26,29,26,22,91,86,79,29.80,29.65,15,3,16,0.42
2013-3-12,30,25,19,24,18,14,89,76,54,30.11,29.76,24,6,24,0.00
2013-3-13,32,22,13,16,9,5,82,59,36,30.33,30.11,17,5,18,0.00
2013-3-14,35,25,16,28,20,11,88,80,69,30.29,30.02,6,1,9,0.00
2013-3-15,36,30,26,32,26,23,92,84,69,30.02,29.84,9,1,9,0.00
2013-3-16,27,22,16,23,14,6,90,73,56,30.20,29.86,18,4,18,0.26
2013-3-17,26,17,4,14,7,-2,76,65,52,30.29,29.99,13,2,13,0.00
2013-3-18,29,22,16,26,18,12,90,85,76,29.99,29.56,25,5,26,0.00
2013-3-19,24,16,10,12,7,1,84,68,52,30.09,29.67,26,12,26,0.31
2013-3-20,20,11,3,7,1,-5,82,64,54,30.13,30.09,23,6,23,0.00
2013-3-21,25,13,-1,12,6,-5,87,72,55,30.14,30.06,12,3,14,0.00
2013-3-22,36,26,9,19,14,4,85,61,47,30.10,30.02,13,3,13,0.00
2013-3-23,40,29,16,25,20,12,89,71,51,30.16,30.06,10,1,10,0.00
2013-3-24,34,30,27,26,23,19,81,75,65,30.10,29.92,13,2,13,0.00
2013-3-25,39,29,17,26,21,14,87,71,51,30.18,29.98,14,2,14,0.00
2013-3-26,38,32,25,26,23,20,84,70,52,30.27,30.18,11,2,11,0.00
2013-3-27,41,35,27,24,21,18,77,59,40,30.32,30.27,15,2,15,0.00
2013-3-28,44,33,18,23,20,14,87,60,39,30.35,30.27,11,2,11,0.00
2013-3-29,49,36,22,27,22,17,83,59,36,30.32,30.12,11,2,11,0.00
2013-3-30,42,39,35,39,34,26,90,82,58,30.12,29.78,20,3,20,0.59
2013-3-31,40,34,27,33,25,15,91,72,41,29.99,29.71,26,6,26,0.00
2013-4-1,33,26,20,18,14,10,76,60,44,30.20,29.98,20,7,20,0.00
2013-4-2,36,26,17,18,15,11,78,63,41,30.34,30.19,19,5,19,0.00
2013-4-3,42,30,14,25,17,10,87,60,34,30.45,30.12,20,3,20,0.00
2013-4-4,49,41,33,35,28,21,77,60,43,30.12,29.98,18,6,21,0.00
2013-4-5,41,34,24,31,22,16,90,60,39,30.24,30.01,12,1,12,0.00
2013-4-6,47,38,33,36,32,27,96,81,56,30.01,29.49,16,3,16,0.41
2013-4-7,44,38,35,35,33,32,90,83,69,29.93,29.66,14,3,14,0.04
2013-4-8,42,39,37,39,36,34,94,89,85,30.01,29.71,10,1,10,0.65
2013-4-9,42,38,34,37,34,26,90,84,63,30.13,29.97,12,2,12,0.18
2013-4-10,42,36,29,29,26,21,90,69,47,30.17,29.92,8,1,8,0.01
2013-4-11,38,34,30,32,28,19,90,77,50,29.93,29.67,14,2,15,0.20
2013-4-12,36,32,29,32,28,26,92,86,72,29.78,29.62,12,2,12,0.29
2013-4-13,35,30,25,26,24,20,90,77,57,29.99,29.77,17,4,18,0.01
2013-4-14,35,29,23,33,26,19,92,86,73,29.99,29.59,15,1,15,0.00
2013-4-15,39,37,35,34,31,27,91,79,67,29.92,29.58,27,8,31,0.18
2013-4-16,44,38,32,31,30,27,83,73,58,30.31,29.91,16,5,16,0.00
2013-4-17,43,37,30,34,30,26,90,77,63,30.33,29.86,10,1,10,0.11
2013-4-18,38,36,32,35,33,30,91,90,87,29.89,29.29,12,2,12,0.35
2013-4-19,35,31,26,30,26,20,91,82,65,29.95,29.26,28,8,28,0.12
2013-4-20,40,30,18,20,15,10,92,58,30,30.34,29.94,15,2,15,0.01
2013-4-21,44,36,31,41,30,17,96,79,54,30.37,30.09,18,3,18,0.37
2013-4-22,44,38,33,41,36,31,91,90,88,30.18,29.99,14,2,14,0.70
2013-4-23,42,36,32,32,29,24,91,75,49,30.06,29.95,20,4,20,0.21
2013-4-24,50,37,27,34,28,22,90,69,42,30.02,29.86,24,6,25,0.03
2013-4-25,46,38,32,34,31,30,91,77,56,30.18,29.93,16,4,16,0.01
2013-4-26,70,54,38,48,40,29,80,59,40,30.16,29.99,22,5,22,0.01
2013-4-27,72,58,42,52,47,39,90,69,42,30.09,29.89,19,3,19,0.00
2013-4-28,74,61,48,53,47,43,84,62,40,29.90,29.65,20,4,20,0.03
2013-4-29,74,61,52,57,53,49,90,76,52,29.73,29.57,14,2,14,0.01
2013-4-30,79,66,57,61,52,33,87,62,34,29.86,29.43,29,6,29,0.00
2013-5-1,59,44,34,45,38,32,90,82,38,30.42,29.85,16,3,16,0.20
2013-5-2,36,33,32,34,31,29,91,90,89,30.47,30.37,19,2,19,0.20
2013-5-3,36,33,31,33,31,28,91,90,87,30.38,30.12,12,2,12,0.00
2013-5-4,52,41,34,44,37,32,92,86,69,30.13,30.07,9,1,9,3.18
2013-5-5,69,52,36,51,42,33,91,71,48,30.13,30.01,10,1,12,0.02
2013-5-6,75,59,38,51,42,35,90,60,29,30.07,29.95,13,2,13,0.00
2013-5-7,78,62,47,46,43,41,84,54,29,29.99,29.90,10,1,10,0.00
2013-5-8,80,66,48,51,48,41,87,55,27,29.95,29.87,14,2,14,0.00
2013-5-9,64,53,41,50,46,37,94,79,59,30.02,29.88,11,2,12,0.43
2013-5-10,65,51,36,37,32,25,88,53,24,30.05,29.84,14,2,14,0.00
2013-5-11,54,46,40,40,31,24,76,57,40,30.08,29.79,34,9,34,0.02
2013-5-12,55,44,32,30,23,17,72,47,24,30.14,30.05,23,5,23,0.00
2013-5-13,61,49,33,38,30,22,70,49,28,30.13,29.70,18,3,18,0.00
2013-5-14,89,68,46,57,47,38,79,50,24,29.74,29.37,26,3,33,0.01
2013-5-15,77,70,61,50,47,42,62,45,33,29.81,29.51,22,6,22,0.00
2013-5-16,82,68,49,52,44,33,87,47,23,29.90,29.75,10,1,10,0.00
2013-5-17,64,57,52,52,47,36,89,71,36,30.00,29.88,12,2,13,0.14
2013-5-18,78,63,52,64,56,49,89,80,60,30.00,29.79,18,2,18,0.13
2013-5-19,85,70,63,66,62,59,89,78,49,29.82,29.54,20,2,21,0.44
2013-5-20,76,67,60,63,60,56,90,78,56,29.60,29.47,31,4,31,0.83
2013-5-21,67,61,54,63,58,51,90,88,83,29.63,29.46,22,1,22,1.28
2013-5-22,60,53,49,54,50,46,90,88,79,29.90,29.62,7,0,7,0.31
2013-5-23,62,51,41,47,37,30,87,62,32,30.31,29.90,17,1,17,0.00
2013-5-24,67,52,35,46,38,32,90,62,36,30.41,30.23,11,1,11,0.00
2013-5-25,63,56,49,50,45,38,80,67,44,30.28,30.22,11,1,11,0.00
2013-5-26,66,57,43,48,42,37,89,60,40,30.25,30.08,15,1,15,0.00
2013-5-27,62,56,53,53,48,43,90,74,62,30.08,29.83,11,1,11,0.20
2013-5-28,58,55,52,55,52,49,92,89,88,29.83,29.66,5,0,7,0.10
2013-5-29,78,63,56,69,59,53,90,86,72,29.81,29.66,28,1,28,0.30
2013-5-30,76,69,63,69,64,60,90,84,72,29.71,29.48,26,2,26,0.26
2013-5-31,78,66,56,64,60,52,92,83,59,29.58,29.49,43,2,43,1.52
2013-6-1,71,59,48,63,55,43,92,86,67,29.81,29.51,15,2,15,0.29
2013-6-2,64,52,44,49,44,41,91,75,44,30.01,29.81,17,2,17,0.11
2013-6-3,70,58,43,52,45,40,91,65,36,30.04,29.93,12,1,12,0.00
2013-6-4,59,56,53,53,50,42,92,80,59,30.11,29.99,8,0,8,0.04
2013-6-5,56,54,52,52,50,49,90,88,87,30.08,29.92,6,0,6,0.56
2013-6-6,55,53,52,52,50,48,90,89,88,29.98,29.90,4,0,4,0.04
2013-6-7,68,59,52,55,51,43,90,76,48,29.99,29.87,7,0,7,0.00
2013-6-8,70,61,51,59,54,48,90,77,63,29.91,29.86,7,0,7,0.00
2013-6-9,66,60,54,63,56,51,90,87,79,29.91,29.76,8,0,8,0.22
2013-6-10,76,67,58,65,61,54,90,81,62,29.78,29.74,9,1,11,0.00
2013-6-11,78,67,56,67,62,53,90,82,64,29.83,29.73,11,1,11,0.00
2013-6-12,70,66,62,66,62,58,90,88,82,29.85,29.66,7,0,7,0.32
2013-6-13,78,66,55,63,56,51,90,70,45,30.03,29.78,13,0,13,0.00
2013-6-14,77,65,52,60,55,49,90,70,47,30.08,29.87,17,1,17,0.20
2013-6-15,71,65,61,68,62,58,90,89,85,29.91,29.73,29,1,29,0.93
2013-6-16,81,70,58,63,57,52,91,67,41,29.83,29.75,19,3,19,0.01
2013-6-17,78,67,55,63,57,52,92,73,51,29.95,29.77,17,1,17,0.00
2013-6-18,74,64,55,56,51,42,87,66,36,30.06,29.95,9,0,9,0.00
2013-6-19,79,67,53,63,57,49,87,70,55,30.07,29.93,12,1,12,0.00
2013-6-20,83,71,62,71,63,58,89,77,58,30.00,29.88,24,1,24,0.28
2013-6-21,77,69,64,69,64,61,90,86,74,30.02,29.64,26,2,26,0.86
2013-6-22,78,70,63,72,66,60,90,87,78,29.97,29.79,13,0,13,0.21
2013-6-23,82,74,67,71,67,64,90,79,61,29.82,29.68,26,4,26,0.00
2013-6-24,81,73,65,72,67,61,90,83,70,29.85,29.73,19,2,19,0.00
2013-6-25,82,74,64,73,67,61,90,81,64,29.79,29.66,11,0,11,0.00
2013-6-26,82,74,69,75,70,66,90,88,77,29.69,29.60,21,1,22,0.65
2013-6-27,84,74,63,72,64,59,90,73,47,29.73,29.64,24,4,24,0.07
2013-6-28,66,63,61,62,59,58,90,88,85,29.70,29.62,13,2,22,0.01
2013-7-3,77,68,65,59,58,55,81,71,47,29.94,29.92,1,0,4,0.00
2013-7-4,83,72,58,67,62,55,90,72,50,29.94,29.84,15,2,15,0.00
2013-7-5,85,75,63,66,62,59,88,66,48,29.90,29.79,20,2,20,0.00
2013-7-6,88,78,68,72,67,62,83,69,55,29.85,29.78,18,2,18,0.00
2013-7-7,86,78,70,75,71,67,89,77,65,29.80,29.75,16,1,16,0.04
2013-7-8,86,76,70,75,70,67,90,83,64,29.89,29.76,8,0,8,0.00
2013-7-9,82,74,67,74,69,64,90,85,70,29.90,29.69,22,2,22,0.85
2013-7-10,78,70,62,69,60,56,90,73,49,29.95,29.75,20,2,20,0.00
2013-7-11,84,74,59,66,60,55,90,65,41,30.05,29.95,9,1,9,0.00
2013-7-12,84,74,64,66,62,60,86,68,48,30.02,29.90,18,2,18,0.00
2013-7-13,80,72,64,66,63,60,90,75,60,30.03,29.91,19,1,19,0.04
2013-7-14,85,75,66,71,66,62,89,73,55,30.13,30.03,17,2,17,0.00
2013-7-15,89,77,66,74,68,62,90,75,52,30.18,30.10,17,1,17,0.00
2013-7-16,91,82,74,76,72,70,89,74,54,30.14,30.08,16,3,16,0.00
2013-7-17,90,82,73,75,72,69,88,72,53,30.16,30.03,13,2,13,0.00
2013-7-18,92,84,75,75,72,70,86,69,50,30.03,29.67,26,6,26,0.00
2013-7-19,84,79,69,74,67,59,85,68,48,29.76,29.59,21,6,21,0.01
2013-7-20,79,70,63,63,59,50,89,70,53,29.91,29.74,8,0,8,0.00
2013-7-21,74,65,60,67,59,50,88,80,63,29.92,29.79,4,0,5,0.12
2013-7-22,84,71,61,76,64,57,89,81,66,29.81,29.55,16,2,16,0.14
2013-7-23,75,64,54,60,54,51,92,74,46,29.96,29.72,12,0,12,0.00
2013-7-24,74,62,49,59,53,46,90,74,49,30.03,29.93,10,1,10,0.00
2013-7-25,80,69,57,67,61,54,88,78,57,29.94,29.82,16,3,16,0.00
2013-7-26,71,64,51,62,58,47,89,82,63,29.96,29.79,20,3,22,0.28
2013-7-27,56,52,47,51,48,44,90,86,75,29.96,29.82,17,3,19,0.06
2013-7-28,69,57,48,58,52,45,92,83,64,30.00,29.85,16,2,16,0.00
2013-7-29,77,63,49,60,54,46,90,75,49,30.09,30.00,9,1,9,0.00
2013-7-30,72,66,61,65,61,57,89,84,74,30.08,29.98,9,0,9,0.03
2013-7-31,78,69,58,66,61,53,89,77,51,30.00,29.87,19,3,19,0.00
2013-8-1,79,66,54,61,55,50,89,69,43,29.94,29.79,17,3,17,0.00
2013-8-2,76,66,55,61,56,52,92,72,48,29.95,29.75,12,1,12,0.00
2013-8-3,76,63,51,57,53,48,90,72,45,30.12,29.95,14,1,14,0.00
2013-8-4,75,62,49,60,53,46,92,74,49,30.20,30.01,10,1,10,0.00
2013-8-5,74,64,56,66,60,53,89,86,75,30.01,29.75,14,1,14,0.07
2013-8-6,80,69,61,69,62,58,90,79,50,29.77,29.59,46,2,46,0.38
2013-8-7,75,65,56,63,57,53,90,77,48,29.96,29.66,11,1,11,0.00
2013-8-8,78,64,50,59,54,47,90,74,47,30.00,29.91,12,2,12,0.00
2013-8-9,76,65,57,58,55,52,90,72,49,30.04,29.91,18,2,18,0.00
2013-8-10,73,65,56,59,56,53,89,74,53,30.10,30.03,6,1,9,0.00
2013-8-11,78,65,54,64,58,51,90,79,58,30.05,29.93,8,0,8,0.00
2013-8-12,79,67,54,64,59,51,89,76,48,30.00,29.88,15,1,15,0.08
2013-8-13,73,60,47,55,50,44,90,74,46,30.14,30.00,9,0,10,0.00
2013-8-14,76,61,50,56,51,47,90,72,42,30.16,30.05,15,1,15,0.00
2013-8-15,80,68,54,59,54,49,90,63,35,30.09,30.01,14,2,14,0.00
2013-8-16,82,68,53,62,56,50,90,70,41,30.13,30.06,10,1,10,0.00
2013-8-17,82,68,53,61,56,50,90,68,39,30.16,30.05,17,2,17,0.00
2013-8-18,82,69,56,62,58,53,92,69,42,30.11,29.97,17,2,17,0.00
2013-8-19,84,72,61,68,63,57,87,75,57,29.98,29.86,15,2,16,0.00
2013-8-20,89,77,64,73,68,61,89,76,58,29.89,29.80,21,2,21,0.00
2013-8-21,87,75,67,75,69,63,89,81,64,29.92,29.78,23,2,23,1.48
2013-8-22,85,71,59,65,60,54,90,71,36,30.06,29.91,9,0,9,0.00
2013-8-23,84,68,52,67,59,49,90,75,50,30.11,30.00,10,1,11,0.00
2013-8-24,85,72,63,73,65,58,89,80,64,30.10,29.93,16,1,16,0.04
2013-8-25,92,82,75,77,73,70,86,75,59,29.97,29.87,23,5,23,0.00
2013-8-26,94,83,75,79,74,69,89,76,60,29.95,29.77,14,3,15,0.00
2013-8-27,92,81,72,80,75,69,89,81,64,29.81,29.69,11,1,11,0.00
2013-8-28,86,76,69,75,70,65,89,82,63,29.95,29.81,9,0,9,0.00
2013-8-29,90,79,69,78,72,66,89,81,66,29.96,29.75,13,1,13,0.00
2013-8-30,84,76,64,75,69,61,89,79,57,29.82,29.71,14,1,14,0.00
2013-8-31,85,71,59,70,64,56,90,79,56,29.83,29.65,10,1,10,0.00
2013-9-1,77,70,62,68,63,56,90,79,61,29.85,29.64,17,2,17,0.11
2013-9-2,71,61,50,56,53,47,90,77,55,29.99,29.85,10,1,10,0.00
2013-9-3,76,60,44,58,51,41,90,75,48,30.05,29.94,12,2,12,0.00
2013-9-4,81,67,57,68,59,53,89,76,56,30.11,29.96,8,0,8,0.00
2013-9-5,81,63,49,61,55,46,92,76,40,30.22,30.09,9,0,9,0.00
2013-9-6,88,72,59,70,63,55,90,73,50,30.10,29.83,18,2,19,0.00
2013-9-7,91,76,66,73,67,61,89,74,53,29.95,29.78,6,0,6,0.00
2013-9-8,74,65,54,62,57,51,90,76,50,30.02,29.86,7,0,8,0.01
2013-9-9,88,74,66,76,68,62,89,81,61,29.86,29.57,16,1,16,0.01
2013-9-10,80,73,68,71,67,64,89,83,62,29.88,29.64,11,2,11,0.01
2013-9-11,85,71,60,65,59,52,89,69,38,29.95,29.87,21,3,21,0.00
2013-9-12,71,60,49,55,51,45,92,74,48,30.17,29.91,16,1,16,0.00
2013-9-13,69,55,40,48,45,38,90,71,42,30.24,30.07,8,0,9,0.00
2013-9-14,72,57,43,55,48,39,90,74,46,30.07,29.88,16,2,16,0.40
2013-9-15,64,56,44,58,52,41,90,85,77,30.27,29.87,11,0,11,0.37
2013-9-16,66,50,36,48,41,33,95,74,38,30.40,30.26,7,0,7,0.00
2013-9-17,67,55,43,55,48,40,90,78,53,30.28,29.97,16,1,16,0.05
2013-9-18,72,64,58,67,60,54,89,87,84,29.97,29.71,16,0,16,0.19
2013-9-19,78,69,66,72,65,62,89,87,78,29.72,29.60,22,1,22,0.33
2013-9-20,66,60,51,63,56,48,90,85,68,29.81,29.63,22,4,25,0.08
2013-9-21,62,52,43,49,46,40,90,80,58,29.93,29.81,12,1,12,0.00
2013-9-22,67,52,38,51,44,36,90,76,53,30.03,29.91,8,0,8,0.01
2013-9-23,70,57,47,55,49,44,90,76,54,30.01,29.91,14,1,14,0.00
2013-9-24,75,58,46,57,51,43,90,78,48,29.98,29.88,7,0,7,0.00
2013-9-25,72,58,46,57,51,43,90,79,52,29.97,29.88,10,0,10,0.01
2013-9-26,75,61,50,60,53,47,92,77,58,29.98,29.90,9,1,9,0.00
2013-9-27,80,68,57,64,57,51,81,68,55,29.97,29.82,21,2,25,0.00
2013-9-28,73,61,50,62,54,47,90,79,59,29.88,29.61,29,3,29,0.26
2013-9-29,73,57,44,53,48,41,90,74,44,29.95,29.83,13,1,13,0.00
2013-9-30,74,62,52,55,51,47,84,68,45,29.83,29.63,23,2,23,0.00
2013-10-1,76,65,52,58,47,36,80,55,25,29.90,29.58,15,4,20,0.00
2013-10-2,76,57,40,53,43,37,90,64,29,30.04,29.86,10,0,13,0.44
2013-10-3,61,57,54,57,53,50,90,88,85,29.94,29.77,14,0,16,1.12
2013-10-4,58,57,55,54,53,52,90,89,88,29.96,29.85,8,0,8,0.20
2013-10-5,63,58,52,60,55,49,90,88,88,29.88,29.62,21,1,21,0.59
2013-10-6,58,50,43,49,45,40,91,84,63,29.74,29.62,13,2,13,0.04
2013-10-7,64,51,42,51,44,39,90,77,42,29.98,29.74,14,2,14,0.01
2013-10-8,74,58,43,51,46,40,90,67,42,29.99,29.88,15,2,20,0.00
2013-10-9,74,62,52,55,51,47,83,67,49,30.05,29.93,11,2,18,0.00
2013-10-10,73,58,45,53,48,42,90,71,45,30.05,29.92,15,1,15,0.00
2013-10-11,75,64,52,59,54,48,89,72,52,29.93,29.69,23,2,23,0.00
2013-10-12,67,56,48,57,47,41,82,72,58,30.08,29.67,28,7,28,0.00
2013-10-13,60,48,38,43,38,31,90,72,34,30.38,30.08,16,2,16,0.00
2013-10-14,57,47,35,44,39,32,90,75,53,30.41,30.03,13,0,13,0.00
2013-10-15,55,50,47,52,47,43,92,88,73,30.04,29.63,19,3,19,1.15
2013-10-16,49,45,39,46,42,36,92,88,79,29.88,29.68,12,2,12,0.05
2013-10-17,53,44,33,45,39,31,91,85,71,29.86,29.73,7,1,7,0.04
2013-10-18,50,44,39,44,38,33,95,80,52,29.89,29.72,15,3,18,0.15
2013-10-19,46,40,34,40,35,31,90,84,76,29.82,29.65,13,3,13,0.00
2013-10-20,41,36,30,40,34,27,95,90,89,29.77,29.63,17,2,17,0.12
2013-10-21,37,35,33,34,28,22,90,75,57,29.89,29.77,21,7,21,0.00
2013-10-22,41,35,28,32,29,24,90,78,67,29.99,29.88,14,3,14,0.00
2013-10-23,38,32,25,32,27,22,90,81,69,30.04,29.96,14,2,14,0.00
2013-10-24,42,36,32,33,29,26,84,77,58,30.27,30.04,19,4,19,0.01
2013-10-25,54,43,34,42,34,29,86,71,57,30.28,29.69,25,6,25,0.00
2013-10-26,51,44,37,42,34,30,81,68,55,30.02,29.68,19,6,23,0.00
2013-10-27,58,42,31,37,32,27,88,69,42,30.10,29.78,19,4,20,0.00
2013-10-28,45,36,28,33,25,21,81,66,40,30.43,30.10,7,1,7,0.00
2013-10-29,42,36,28,37,30,22,87,79,73,30.43,30.10,7,0,7,0.00
2013-10-30,52,47,41,49,43,37,92,88,87,30.11,29.65,7,0,7,0.14
2013-10-31,53,49,41,50,46,38,90,89,88,29.65,29.27,15,3,15,0.07
2013-11-1,46,42,38,42,39,35,92,87,79,29.77,29.28,16,5,16,0.03
2013-11-2,49,38,30,38,33,28,90,82,57,30.11,29.77,11,2,12,0.00
2013-11-3,51,40,30,36,32,28,90,75,55,30.19,29.99,18,3,18,0.32
2013-11-4,46,43,38,43,38,35,90,83,70,30.12,29.88,16,4,16,0.25
2013-11-5,43,37,30,40,34,27,90,89,85,30.24,29.92,7,0,7,0.20
2013-11-6,40,35,31,32,29,26,91,81,58,30.13,29.89,21,5,21,0.15
2013-11-7,35,30,24,30,26,22,90,87,73,30.21,30.13,10,2,10,0.01
2013-11-8,42,33,22,36,28,20,91,83,70,30.21,29.62,15,2,15,0.06
2013-11-9,44,41,37,41,35,29,90,80,65,30.08,29.60,27,9,27,0.00
2013-11-10,44,39,35,33,30,27,81,70,60,30.28,30.05,23,6,23,0.00
2013-11-11,39,27,18,32,16,9,89,65,44,30.66,30.05,18,4,18,0.00
2013-11-12,28,20,13,15,11,8,84,70,51,30.76,30.50,15,4,15,0.00
2013-11-13,48,35,18,33,25,14,81,68,53,30.50,29.88,28,7,28,0.00
2013-11-14,43,38,35,34,31,28,89,78,70,29.88,29.75,14,4,15,0.00
2013-11-15,54,41,27,41,34,24,90,79,59,29.87,29.70,11,2,12,0.00
2013-11-16,54,46,42,51,41,35,89,84,75,29.70,29.24,19,4,19,0.26
2013-11-17,48,41,32,44,38,27,90,86,80,29.67,29.26,31,7,31,0.00
2013-11-18,32,28,20,27,22,17,90,78,70,30.27,29.67,28,8,29,0.00
2013-11-19,39,30,18,26,22,15,90,74,56,30.32,30.05,14,3,14,0.00
2013-11-20,41,37,34,32,28,24,90,71,54,30.05,29.99,18,3,18,0.37
2013-11-21,37,32,26,34,30,23,91,89,87,30.42,30.05,14,2,14,0.00
2013-11-22,30,24,17,23,17,9,89,75,58,30.54,30.42,21,5,21,0.00
2013-11-23,18,12,4,11,4,0,83,70,55,30.77,30.52,18,4,20,0.00
2013-11-24,26,15,2,16,7,-2,86,71,51,30.74,30.05,23,5,23,0.00
2013-11-25,39,32,25,30,24,15,80,72,64,30.05,29.90,23,8,23,0.00
2013-11-26,32,20,11,21,10,2,88,66,53,30.33,29.99,28,6,28,0.00
2013-11-27,26,18,8,16,10,4,86,74,57,30.36,30.14,11,2,12,0.00
2013-11-28,27,22,13,17,14,9,84,72,63,30.52,30.11,15,2,15,0.00
2013-11-29,28,20,7,21,14,3,88,78,66,30.58,30.24,14,2,14,0.00
2013-11-30,39,32,26,30,26,21,83,77,68,30.24,30.01,9,1,9,0.00
2013-12-1,38,30,24,29,25,21,90,83,65,30.17,29.95,7,0,7,0.00
2013-12-2,35,30,24,33,27,21,96,89,88,29.95,29.68,10,1,10,0.00
2013-12-3,35,33,31,32,30,28,90,89,89,29.80,29.65,11,0,12,0.40
2013-12-4,36,32,25,33,29,21,90,89,86,29.80,29.39,24,2,26,0.00
2013-12-5,25,10,1,21,5,-3,92,81,76,30.33,29.56,28,9,28,0.00
2013-12-6,7,0,-6,0,-5,-9,84,81,74,30.66,30.33,16,4,16,0.53
2013-12-7,3,-5,-11,-4,-10,-15,92,80,70,30.76,30.64,11,2,11,0.00
2013-12-8,11,6,-6,8,2,-10,88,85,83,30.66,30.06,7,0,8,0.00
2013-12-9,10,3,-6,8,-2,-10,92,81,71,30.14,29.98,22,5,22,0.11
2013-12-10,8,2,-6,4,-2,-10,94,81,73,30.26,29.85,19,4,19,0.00
2013-12-11,5,-3,-9,1,-9,-13,92,76,65,30.57,30.26,24,5,24,0.00
2013-12-12,15,7,-3,13,3,-8,92,81,73,30.44,30.20,10,2,10,0.00
2013-12-13,16,13,11,11,8,6,92,79,73,30.33,30.19,5,1,5,0.00
2013-12-14,18,12,7,14,9,3,87,85,81,30.33,30.02,16,2,16,0.00
2013-12-15,7,-2,-13,3,-8,-17,84,76,66,30.22,30.03,18,5,18,0.00
2013-12-16,16,4,-11,14,0,-15,95,84,74,30.21,29.95,13,2,13,0.00
2013-12-17,29,22,8,26,18,3,90,82,73,30.09,29.85,22,6,22,0.00
2013-12-18,30,17,2,20,11,-2,97,79,63,30.08,29.68,21,1,21,0.00
2013-12-19,24,18,13,17,14,9,90,83,74,30.07,29.78,10,1,10,0.00
2013-12-20,21,18,14,17,14,10,89,84,76,30.05,29.86,7,0,7,0.00
2013-12-21,25,22,20,20,18,17,89,85,79,29.99,29.86,8,0,8,0.00
2013-12-22,28,23,17,23,20,14,92,86,81,30.14,29.89,10,2,10,0.00
2013-12-23,17,7,-3,14,4,-7,89,86,83,30.49,30.14,11,4,11,0.52
2013-12-24,13,2,-12,9,-2,-17,96,84,80,30.54,30.22,14,2,14,0.00
2013-12-25,19,14,9,16,11,6,89,87,82,30.22,30.07,13,3,13,0.09
2013-12-26,21,16,11,17,12,8,92,86,82,30.21,30.12,10,0,10,0.00
2013-12-27,37,24,10,31,21,7,90,87,79,30.21,29.90,16,3,16,0.00
2013-12-28,44,31,22,34,27,20,91,85,66,29.99,29.66,18,1,18,0.00
2013-12-29,26,4,-15,22,-2,-20,89,74,60,30.32,29.84,22,5,22,0.00
2013-12-30,-2,-9,-21,-6,-14,-26,92,78,66,30.38,30.27,9,0,9,0.00
2013-12-31,-1,-6,-16,-5,-11,-21,84,79,70,30.49,30.24,11,2,11,0.00
2014-1-1,6,-1,-14,-1,-7,-19,82,75,67,30.56,30.46,7,0,7,0.00
2014-1-2,6,-1,-12,-2,-6,-17,94,78,64,30.51,30.44,10,1,11,0.00